Time;durP1;ratioP1;P1;durP2;ratioP2;P2;SDS_P1;SDS_P2;PMS_P1;PMS_P2;Temp;Humidity;BMP_temperature;BMP_pressure;BME280_temperature;BME280_humidity;BME280_pressure;Samples;Min_cycle;Max_cycle;Signal;HPM_P1;HPM_P2
2023/03/22 00:00:44;;;;;;;20.10;9.60;;;10.10;99.90;;;;;;5089577;28;20052;-74
2023/03/22 00:03:10;;;;;;;21.40;8.50;;;9.90;99.90;;;;;;5090874;28;20050;-75
2023/03/22 00:05:35;;;;;;;17.88;8.43;;;9.80;99.90;;;;;;5090634;28;20451;-74
2023/03/22 00:08:04;;;;;;;16.67;8.65;;;9.80;99.90;;;;;;5089229;28;20055;-75
2023/03/22 00:10:30;;;;;;;18.90;8.32;;;9.80;99.90;;;;;;5090928;28;20442;-75
2023/03/22 00:12:56;;;;;;;17.88;7.82;;;9.80;99.90;;;;;;5090440;28;20036;-75
2023/03/22 00:15:22;;;;;;;21.48;8.18;;;9.80;99.90;;;;;;5090398;28;20092;-75
2023/03/22 00:17:51;;;;;;;20.80;7.35;;;9.80;99.90;;;;;;5090632;28;20040;-74
2023/03/22 00:20:18;;;;;;;14.27;7.25;;;9.70;99.90;;;;;;5090431;28;20047;-75
2023/03/22 00:22:44;;;;;;;13.48;6.38;;;9.70;99.90;;;;;;5090028;28;20108;-73
2023/03/22 00:25:10;;;;;;;18.60;7.70;;;9.70;99.90;;;;;;5090027;28;20147;-74
2023/03/22 00:27:36;;;;;;;13.32;6.75;;;9.70;99.90;;;;;;5090127;28;20158;-77
2023/03/22 00:30:03;;;;;;;16.30;5.60;;;9.70;99.90;;;;;;5090324;28;20051;-81
2023/03/22 00:32:29;;;;;;;16.70;5.90;;;9.60;99.90;;;;;;5090355;28;20040;-75
2023/03/22 00:34:54;;;;;;;11.73;5.28;;;9.60;99.90;;;;;;5090225;28;20055;-76
2023/03/22 00:37:20;;;;;;;15.57;5.38;;;9.60;99.90;;;;;;5089971;28;20039;-75
2023/03/22 00:39:46;;;;;;;17.05;5.50;;;9.60;99.90;;;;;;5089097;28;20098;-75
2023/03/22 00:42:11;;;;;;;16.88;4.88;;;9.50;99.90;;;;;;5090336;28;20480;-75
2023/03/22 00:44:37;;;;;;;13.85;5.50;;;9.50;99.90;;;;;;5089853;28;20052;-73
2023/03/22 00:47:02;;;;;;;10.35;4.85;;;9.50;99.90;;;;;;5089870;28;20055;-75
2023/03/22 00:49:30;;;;;;;12.98;4.65;;;9.50;99.90;;;;;;5090254;28;20048;-76
2023/03/22 00:51:55;;;;;;;11.63;4.72;;;9.60;99.90;;;;;;5088280;28;20062;-76
2023/03/22 00:54:21;;;;;;;16.73;4.95;;;9.40;99.90;;;;;;5089871;28;20051;-75
2023/03/22 00:56:48;;;;;;;14.50;4.45;;;9.40;99.90;;;;;;5088898;28;20047;-75
2023/03/22 00:59:15;;;;;;;8.43;4.25;;;9.40;99.90;;;;;;5089443;28;20047;-75
2023/03/22 01:01:41;;;;;;;11.50;3.97;;;9.40;99.90;;;;;;5088504;28;20132;-76
2023/03/22 01:04:07;;;;;;;10.65;4.22;;;9.40;99.90;;;;;;5089440;28;20040;-76
2023/03/22 01:06:33;;;;;;;11.68;4.60;;;9.40;99.90;;;;;;5089990;28;20056;-76
2023/03/22 01:08:59;;;;;;;15.23;4.20;;;9.30;99.90;;;;;;5088207;28;20110;-76
2023/03/22 01:11:25;;;;;;;15.07;3.90;;;9.30;99.90;;;;;;5090072;28;20110;-75
2023/03/22 01:13:52;;;;;;;8.23;3.13;;;9.40;99.90;;;;;;5089544;28;20044;-75
2023/03/22 01:16:18;;;;;;;14.02;3.50;;;9.30;99.90;;;;;;5089846;28;20098;-76
2023/03/22 01:18:43;;;;;;;14.30;3.75;;;9.30;99.90;;;;;;5089728;28;20885;-74
2023/03/22 01:21:10;;;;;;;14.23;3.30;;;9.30;99.90;;;;;;5089882;28;20098;-76
2023/03/22 01:23:36;;;;;;;14.82;3.58;;;9.30;99.90;;;;;;5089357;28;20048;-75
2023/03/22 01:26:02;;;;;;;12.88;2.95;;;9.60;99.90;;;;;;5089767;28;20467;-77
2023/03/22 01:28:28;;;;;;;16.25;4.22;;;9.30;99.90;;;;;;5089236;28;20036;-75
2023/03/22 01:30:54;;;;;;;9.30;2.60;;;9.20;99.90;;;;;;5088649;28;20399;-76
2023/03/22 01:33:20;;;;;;;12.27;2.70;;;9.30;99.90;;;;;;5089787;28;20040;-77
2023/03/22 01:35:45;;;;;;;11.70;2.50;;;9.20;99.90;;;;;;5089724;28;20450;-74
2023/03/22 01:38:11;;;;;;;6.78;2.25;;;9.20;99.90;;;;;;5093292;28;20044;-75
2023/03/22 01:40:37;;;;;;;15.10;2.63;;;9.20;99.90;;;;;;5093414;28;20048;-74
2023/03/22 01:43:03;;;;;;;13.00;2.38;;;9.20;99.90;;;;;;5093158;28;20122;-75
2023/03/22 01:45:41;;;;;;;15.15;2.47;;;9.20;99.90;;;;;;5093020;28;20048;-74
2023/03/22 01:48:28;;;;;;;11.32;2.30;;;9.20;99.90;;;;;;5093215;28;20505;-75
2023/03/22 01:51:27;;;;;;;7.10;1.80;;;9.10;99.90;;;;;;5093198;28;20134;-75
2023/03/22 01:54:03;;;;;;;12.80;2.00;;;9.20;99.90;;;;;;5013615;28;20076;-74
2023/03/22 01:56:34;;;;;;;11.50;1.60;;;9.10;99.90;;;;;;5014130;28;20594;-75
2023/03/22 01:59:01;;;;;;;11.25;1.92;;;9.10;99.90;;;;;;5030450;28;20183;-75
2023/03/22 02:01:27;;;;;;;11.45;1.80;;;9.50;99.90;;;;;;5030207;28;20065;-77
2023/03/22 02:04:01;;;;;;;11.27;1.75;;;9.10;99.90;;;;;;5029890;28;20058;-74
2023/03/22 02:06:28;;;;;;;7.35;1.45;;;9.10;99.90;;;;;;5030047;28;20069;-75
2023/03/22 02:08:57;;;;;;;10.32;1.95;;;9.10;99.90;;;;;;5013103;28;20065;-75
2023/03/22 02:12:00;;;;;;;9.35;1.90;;;9.10;99.90;;;;;;5029913;28;20057;-77
2023/03/22 02:15:03;;;;;;;10.43;2.17;;;9.10;99.90;;;;;;5013208;28;20053;-74
2023/03/22 02:18:05;;;;;;;8.50;1.90;;;9.10;99.90;;;;;;5029989;28;20065;-75
2023/03/22 02:21:02;;;;;;;9.55;1.85;;;9.10;99.90;;;;;;5029970;28;20049;-75
2023/03/22 02:24:04;;;;;;;12.55;1.70;;;9.10;99.90;;;;;;5029901;28;20061;-75
2023/03/22 02:27:03;;;;;;;10.30;1.35;;;9.10;99.90;;;;;;5013716;28;20494;-76
2023/03/22 02:30:22;;;;;;;8.98;1.67;;;9.10;99.90;;;;;;5022978;28;20071;-75
2023/03/22 02:32:56;;;;;;;11.15;2.00;;;9.10;99.90;;;;;;5029812;28;20057;-76
2023/03/22 02:35:40;;;;;;;9.35;1.95;;;9.10;99.90;;;;;;5029734;28;20069;-75
2023/03/22 02:38:20;;;;;;;15.35;2.00;;;9.10;99.90;;;;;;5029509;28;20148;-75
2023/03/22 02:41:14;;;;;;;12.10;2.08;;;9.10;99.90;;;;;;5012695;28;20064;-77
2023/03/22 02:44:04;;;;;;;11.85;2.15;;;9.10;99.90;;;;;;5029282;28;20041;-75
2023/03/22 02:46:50;;;;;;;19.60;2.63;;;9.10;99.90;;;;;;5029701;28;20120;-76
2023/03/22 02:49:25;;;;;;;10.07;1.60;;;9.10;99.90;;;;;;5029447;28;20048;-76
2023/03/22 02:52:16;;;;;;;9.57;1.85;;;9.10;99.90;;;;;;5029548;28;20042;-77
2023/03/22 02:54:54;;;;;;;10.90;1.60;;;9.20;99.90;;;;;;5012352;28;20108;-76
2023/03/22 02:57:28;;;;;;;15.00;1.60;;;9.60;99.90;;;;;;5029569;28;20061;-75
2023/03/22 02:59:55;;;;;;;12.33;1.77;;;9.10;99.90;;;;;;5013265;28;20592;-74
2023/03/22 03:02:22;;;;;;;13.18;2.33;;;9.20;99.90;;;;;;5028864;28;20390;-76
2023/03/22 03:04:50;;;;;;;9.02;1.73;;;9.60;99.90;;;;;;5028806;28;20082;-75
2023/03/22 03:07:23;;;;;;;10.82;1.70;;;9.10;99.90;;;;;;5058757;28;20062;-75
2023/03/22 03:09:50;;;;;;;14.50;2.28;;;9.20;99.90;;;;;;5071696;28;20067;-73
2023/03/22 03:12:26;;;;;;;11.65;2.38;;;9.20;99.90;;;;;;5071645;28;20115;-75
2023/03/22 03:14:53;;;;;;;11.23;1.67;;;9.20;99.90;;;;;;5081771;28;20588;-75
2023/03/22 03:17:37;;;;;;;12.32;1.85;;;9.20;99.90;;;;;;5090938;28;20132;-76
2023/03/22 03:20:15;;;;;;;11.80;2.15;;;9.20;99.90;;;;;;5091692;28;20036;-74
2023/03/22 03:22:47;;;;;;;10.77;2.13;;;9.20;99.90;;;;;;5091499;28;20119;-77
2023/03/22 03:25:24;;;;;;;9.30;1.63;;;9.20;99.90;;;;;;5091304;28;20044;-76
2023/03/22 03:28:01;;;;;;;13.25;2.17;;;9.20;99.90;;;;;;5091534;28;20048;-75
2023/03/22 03:30:33;;;;;;;8.93;1.58;;;9.20;99.90;;;;;;5091192;28;20414;-74
2023/03/22 03:33:03;;;;;;;10.25;2.08;;;9.20;99.90;;;;;;5091185;28;20101;-79
2023/03/22 03:35:37;;;;;;;11.95;2.90;;;9.20;99.90;;;;;;5090956;28;20047;-74
2023/03/22 03:38:09;;;;;;;15.63;2.55;;;9.40;99.90;;;;;;5071091;28;20041;-74
2023/03/22 03:40:49;;;;;;;15.57;2.45;;;9.30;99.90;;;;;;5070620;28;20051;-74
2023/03/22 03:43:15;;;;;;;13.00;2.25;;;9.20;99.90;;;;;;5075019;28;20043;-76
2023/03/22 03:45:40;;;;;;;8.95;2.10;;;9.20;99.90;;;;;;5090384;28;20048;-76
2023/03/22 03:48:17;;;;;;;12.77;2.17;;;9.20;99.90;;;;;;5091062;28;20093;-75
2023/03/22 03:50:43;;;;;;;13.77;2.55;;;9.60;99.90;;;;;;5090263;28;20040;-74
2023/03/22 03:53:08;;;;;;;11.25;2.63;;;9.20;99.90;;;;;;5089478;28;20482;-75
2023/03/22 03:55:35;;;;;;;11.90;2.35;;;9.20;99.90;;;;;;5090653;28;20525;-75
2023/03/22 03:58:00;;;;;;;14.70;2.47;;;9.20;99.90;;;;;;5089313;28;20056;-76
2023/03/22 04:00:26;;;;;;;9.48;2.15;;;9.30;99.90;;;;;;5088670;28;20482;-74
2023/03/22 04:02:52;;;;;;;14.52;2.63;;;9.10;99.90;;;;;;5090668;28;20494;-74
2023/03/22 04:05:17;;;;;;;10.27;2.10;;;9.10;99.90;;;;;;5090602;28;20097;-75
2023/03/22 04:07:43;;;;;;;11.88;2.95;;;9.20;99.90;;;;;;5088374;28;20051;-74
2023/03/22 04:10:09;;;;;;;12.40;2.38;;;9.40;99.90;;;;;;5090247;28;20422;-74
2023/03/22 04:12:35;;;;;;;8.88;2.30;;;9.10;99.90;;;;;;5090034;28;20479;-76
2023/03/22 04:15:00;;;;;;;11.27;2.55;;;9.20;99.90;;;;;;5090259;28;20052;-76
2023/03/22 04:17:28;;;;;;;10.52;2.80;;;9.30;99.90;;;;;;5090493;28;20044;-76
2023/03/22 04:19:55;;;;;;;11.02;2.30;;;9.10;99.90;;;;;;5088783;28;20842;-76
2023/03/22 04:22:22;;;;;;;11.00;2.40;;;9.20;99.90;;;;;;5089963;28;20036;-76
2023/03/22 04:24:49;;;;;;;12.75;2.13;;;9.30;99.90;;;;;;5090220;28;20054;-76
2023/03/22 04:27:15;;;;;;;8.63;2.05;;;9.20;99.90;;;;;;5089798;28;20043;-74
2023/03/22 04:29:47;;;;;;;14.98;2.75;;;9.20;99.90;;;;;;5069962;28;20041;-76
2023/03/22 04:32:25;;;;;;;14.32;2.75;;;9.20;99.90;;;;;;5070064;28;20823;-75
2023/03/22 04:34:51;;;;;;;9.30;2.85;;;9.20;99.90;;;;;;5087275;28;20055;-75
2023/03/22 04:37:18;;;;;;;12.13;2.83;;;9.20;99.90;;;;;;5089355;28;20117;-77
2023/03/22 04:39:44;;;;;;;12.07;2.75;;;9.20;99.90;;;;;;5090072;28;20063;-75
2023/03/22 04:42:10;;;;;;;12.52;3.28;;;9.20;99.90;;;;;;5088440;28;20043;-75
2023/03/22 04:44:36;;;;;;;15.77;3.92;;;9.20;99.90;;;;;;5088154;28;20048;-76
2023/03/22 04:47:02;;;;;;;9.70;3.65;;;9.20;99.90;;;;;;5090125;28;20116;-74
2023/03/22 04:49:28;;;;;;;15.43;4.45;;;9.50;99.90;;;;;;5088251;28;20696;-77
2023/03/22 04:51:54;;;;;;;11.65;4.10;;;9.50;99.90;;;;;;5089994;28;20040;-75
2023/03/22 04:54:20;;;;;;;14.13;4.50;;;9.20;99.90;;;;;;5089917;28;20047;-76
2023/03/22 04:56:46;;;;;;;16.50;6.18;;;9.30;99.90;;;;;;5090424;28;20044;-76
2023/03/22 04:59:12;;;;;;;18.80;5.70;;;9.20;99.90;;;;;;5088382;28;20119;-76
2023/03/22 05:01:39;;;;;;;10.98;4.53;;;9.20;99.90;;;;;;5090200;28;20039;-76
2023/03/22 05:04:05;;;;;;;14.95;5.45;;;9.30;99.90;;;;;;5090086;28;20394;-76
2023/03/22 05:06:32;;;;;;;16.20;5.28;;;9.20;99.90;;;;;;5090032;28;20052;-75
2023/03/22 05:09:00;;;;;;;14.98;5.45;;;9.30;99.90;;;;;;5089932;28;20059;-75
2023/03/22 05:11:27;;;;;;;11.10;5.68;;;9.70;99.90;;;;;;5091306;28;20055;-75
2023/03/22 05:13:56;;;;;;;15.77;6.43;;;9.30;99.90;;;;;;5093180;28;20036;-76
2023/03/22 05:16:23;;;;;;;16.40;5.90;;;9.30;99.90;;;;;;5093794;28;20047;-74
2023/03/22 05:18:53;;;;;;;15.00;6.40;;;9.30;99.90;;;;;;5092284;28;20389;-75
2023/03/22 05:21:35;;;;;;;17.50;6.85;;;9.90;99.90;;;;;;5093235;28;20101;-75
2023/03/22 05:24:02;;;;;;;13.93;5.90;;;9.60;99.90;;;;;;5092481;28;20055;-74
2023/03/22 05:26:27;;;;;;;12.73;6.35;;;9.40;99.90;;;;;;5094327;28;20039;-74
2023/03/22 05:28:54;;;;;;;12.82;6.65;;;9.50;99.90;;;;;;5093082;28;20040;-75
2023/03/22 05:31:20;;;;;;;19.98;6.88;;;9.30;99.90;;;;;;5093742;28;20052;-74
2023/03/22 05:33:50;;;;;;;18.67;7.40;;;9.40;99.90;;;;;;5093326;28;20044;-75
2023/03/22 05:36:24;;;;;;;17.20;7.93;;;9.40;99.90;;;;;;5093355;28;20050;-75
2023/03/22 05:38:50;;;;;;;20.08;7.88;;;9.80;99.90;;;;;;5093054;28;20048;-76
2023/03/22 05:41:15;;;;;;;13.98;7.65;;;9.90;99.90;;;;;;5093389;28;20054;-77
2023/03/22 05:43:41;;;;;;;15.52;8.63;;;9.40;99.90;;;;;;5092932;28;20126;-76
2023/03/22 05:46:10;;;;;;;12.20;7.63;;;9.40;99.90;;;;;;5093336;28;20470;-75
2023/03/22 05:48:40;;;;;;;19.38;7.63;;;9.40;99.90;;;;;;5092018;28;20044;-76
2023/03/22 05:51:12;;;;;;;17.48;7.63;;;9.40;99.90;;;;;;5093282;28;20052;-75
2023/03/22 05:53:38;;;;;;;17.20;8.50;;;9.40;99.90;;;;;;5091929;28;20056;-75
2023/03/22 05:56:04;;;;;;;19.13;8.80;;;9.40;99.90;;;;;;5093107;28;20675;-75
2023/03/22 05:58:30;;;;;;;19.67;8.50;;;9.40;99.90;;;;;;5092867;28;20062;-75
2023/03/22 06:01:05;;;;;;;17.33;8.65;;;9.50;99.90;;;;;;5093203;28;20567;-75
2023/03/22 06:03:31;;;;;;;15.80;8.73;;;9.90;99.90;;;;;;5093075;28;20055;-75
2023/03/22 06:05:56;;;;;;;23.67;8.35;;;9.50;99.90;;;;;;5093136;28;20052;-75
2023/03/22 06:08:23;;;;;;;17.40;8.60;;;9.60;99.90;;;;;;5091570;28;20465;-75
2023/03/22 06:10:50;;;;;;;19.20;8.45;;;9.50;99.90;;;;;;5093176;28;20048;-75
2023/03/22 06:13:16;;;;;;;23.48;9.15;;;9.80;99.90;;;;;;5092733;28;20478;-76
2023/03/22 06:15:42;;;;;;;19.85;8.90;;;9.50;99.90;;;;;;5091016;28;20062;-79
2023/03/22 06:18:07;;;;;;;18.80;8.90;;;10.00;99.90;;;;;;5092863;28;20123;-76
2023/03/22 06:20:34;;;;;;;17.50;8.73;;;9.70;99.90;;;;;;5092476;28;20051;-76
2023/03/22 06:23:00;;;;;;;19.25;8.55;;;9.50;99.90;;;;;;5090938;28;20056;-74
2023/03/22 06:25:25;;;;;;;16.90;8.88;;;9.60;99.90;;;;;;5092661;28;20391;-78
2023/03/22 06:27:51;;;;;;;17.52;9.60;;;9.70;99.90;;;;;;5091684;28;20104;-75
2023/03/22 06:30:17;;;;;;;19.30;8.80;;;9.60;99.90;;;;;;5092584;28;20547;-75
2023/03/22 06:32:43;;;;;;;20.23;9.05;;;9.60;99.90;;;;;;5092835;28;20036;-74
2023/03/22 06:35:09;;;;;;;21.35;9.40;;;9.60;99.90;;;;;;5091102;28;20185;-75
2023/03/22 06:37:35;;;;;;;17.50;8.57;;;9.60;99.90;;;;;;5092612;28;20040;-75
2023/03/22 06:40:00;;;;;;;18.35;8.93;;;10.00;99.90;;;;;;5092676;28;20119;-75
2023/03/22 06:42:27;;;;;;;18.23;9.15;;;9.80;99.90;;;;;;5091177;28;20547;-73
2023/03/22 06:44:52;;;;;;;20.40;10.10;;;9.90;99.90;;;;;;5088834;28;20052;-75
2023/03/22 06:47:18;;;;;;;19.05;9.88;;;9.70;99.90;;;;;;5107842;28;20384;-74
2023/03/22 06:49:44;;;;;;;20.60;9.23;;;9.90;99.90;;;;;;5091957;28;20036;-75
2023/03/22 06:52:10;;;;;;;19.40;9.20;;;9.80;99.90;;;;;;5091896;28;20055;-75
2023/03/22 06:54:35;;;;;;;19.45;9.05;;;10.30;99.90;;;;;;5092413;28;20449;-77
2023/03/22 06:57:01;;;;;;;15.13;8.35;;;9.90;99.90;;;;;;5092070;28;20043;-75
2023/03/22 06:59:27;;;;;;;18.77;9.23;;;10.20;99.90;;;;;;5091772;28;20048;-76
2023/03/22 07:01:52;;;;;;;20.45;8.82;;;10.00;99.90;;;;;;5091917;28;20727;-75
2023/03/22 07:04:18;;;;;;;17.58;9.38;;;10.20;99.90;;;;;;5091543;28;20040;-74
2023/03/22 07:06:44;;;;;;;20.35;8.88;;;10.20;99.90;;;;;;5090399;28;20056;-74
2023/03/22 07:09:11;;;;;;;21.73;9.40;;;10.20;99.90;;;;;;5091577;28;20631;-73
2023/03/22 07:11:36;;;;;;;17.77;8.73;;;10.70;99.90;;;;;;5091985;28;20079;-76
2023/03/22 07:14:02;;;;;;;22.50;8.00;;;10.20;99.90;;;;;;5091837;28;20091;-76
2023/03/22 07:16:27;;;;;;;20.63;8.00;;;10.20;99.90;;;;;;5091617;28;20483;-74
2023/03/22 07:18:54;;;;;;;17.55;9.23;;;10.30;99.90;;;;;;5091560;28;20048;-75
2023/03/22 07:21:20;;;;;;;16.38;8.43;;;10.30;99.90;;;;;;5091191;28;20044;-75
2023/03/22 07:23:46;;;;;;;17.13;8.40;;;10.30;99.90;;;;;;5089709;28;20063;-75
2023/03/22 07:26:12;;;;;;;14.55;8.15;;;10.30;99.90;;;;;;5091381;28;20036;-75
2023/03/22 07:28:40;;;;;;;13.65;8.00;;;10.50;99.90;;;;;;5091785;28;20055;-77
2023/03/22 07:31:10;;;;;;;14.38;7.13;;;10.40;99.90;;;;;;5090143;28;20044;-74
2023/03/22 07:33:36;;;;;;;14.93;7.40;;;10.30;99.90;;;;;;5090818;28;20048;-75
2023/03/22 07:36:03;;;;;;;17.90;7.40;;;10.50;99.90;;;;;;5090898;28;20547;-75
2023/03/22 07:38:29;;;;;;;17.83;7.63;;;10.30;99.90;;;;;;5091508;28;20098;-75
2023/03/22 07:40:55;;;;;;;15.80;7.22;;;10.70;99.90;;;;;;5091177;28;20506;-75
2023/03/22 07:43:21;;;;;;;19.42;8.07;;;10.30;99.90;;;;;;5091271;28;20089;-74
2023/03/22 07:45:51;;;;;;;16.05;7.15;;;10.30;99.90;;;;;;5091016;28;20135;-75
2023/03/22 07:48:21;;;;;;;15.90;6.93;;;10.30;99.90;;;;;;5090741;28;20032;-74
2023/03/22 07:50:46;;;;;;;15.85;6.53;;;10.60;99.90;;;;;;5090776;28;20102;-74
2023/03/22 07:53:12;;;;;;;21.02;7.68;;;10.30;99.90;;;;;;5091223;28;20044;-75
2023/03/22 07:55:41;;;;;;;16.20;7.70;;;10.50;99.90;;;;;;5089094;28;20089;-75
2023/03/22 07:58:07;;;;;;;19.48;6.50;;;10.40;99.90;;;;;;5091076;28;20055;-75
2023/03/22 08:00:33;;;;;;;15.77;6.43;;;10.50;99.90;;;;;;5090640;28;20040;-74
2023/03/22 08:02:58;;;;;;;17.50;6.63;;;10.50;99.90;;;;;;5090375;28;20056;-75
2023/03/22 08:05:24;;;;;;;16.80;6.47;;;10.60;99.90;;;;;;5089433;28;20051;-75
2023/03/22 08:07:51;;;;;;;15.25;6.35;;;10.90;99.90;;;;;;5090822;28;20405;-75
2023/03/22 08:10:17;;;;;;;16.25;6.13;;;10.70;99.90;;;;;;5091033;28;20051;-76
2023/03/22 08:12:43;;;;;;;15.05;6.28;;;10.60;99.90;;;;;;5089149;28;20048;-76
2023/03/22 08:15:09;;;;;;;12.35;6.05;;;10.50;99.90;;;;;;5090871;28;20483;-74
2023/03/22 08:17:35;;;;;;;13.82;6.30;;;10.50;99.90;;;;;;5090242;28;20043;-74
2023/03/22 08:20:07;;;;;;;13.18;6.15;;;10.60;99.90;;;;;;5090871;28;20048;-74
2023/03/22 08:22:32;;;;;;;17.58;6.43;;;10.60;99.90;;;;;;5090697;28;20070;-75
2023/03/22 08:24:58;;;;;;;16.00;6.38;;;10.60;99.90;;;;;;5090695;28;20052;-76
2023/03/22 08:27:24;;;;;;;11.45;6.47;;;10.60;99.90;;;;;;5090576;28;20044;-78
2023/03/22 08:29:49;;;;;;;15.45;5.72;;;10.60;99.90;;;;;;5090622;28;20056;-74
2023/03/22 08:32:16;;;;;;;17.90;6.43;;;10.60;99.90;;;;;;5089381;28;20047;-75
2023/03/22 08:34:42;;;;;;;12.75;5.93;;;10.70;99.90;;;;;;5090358;28;20052;-73
2023/03/22 08:37:09;;;;;;;14.60;5.13;;;10.70;99.90;;;;;;5089966;28;20044;-75
2023/03/22 08:39:36;;;;;;;16.88;5.38;;;10.70;99.90;;;;;;5090723;28;20138;-75
2023/03/22 08:42:02;;;;;;;14.80;5.43;;;10.80;99.90;;;;;;5090314;28;20050;-74
2023/03/22 08:44:28;;;;;;;16.10;5.63;;;10.80;99.90;;;;;;5090277;28;20403;-73
2023/03/22 08:46:54;;;;;;;13.00;5.07;;;10.80;99.90;;;;;;5089880;28;20451;-76
2023/03/22 08:49:20;;;;;;;13.90;5.40;;;11.20;99.90;;;;;;5090389;28;20063;-74
2023/03/22 08:51:45;;;;;;;15.55;5.10;;;11.20;99.90;;;;;;5090196;28;20090;-75
2023/03/22 08:54:12;;;;;;;13.32;5.25;;;11.00;99.90;;;;;;5091234;28;20040;-76
2023/03/22 08:56:38;;;;;;;12.55;5.03;;;11.00;99.90;;;;;;5090372;28;20044;-75
2023/03/22 08:59:05;;;;;;;11.85;4.85;;;11.30;99.90;;;;;;5089408;28;20074;-75
2023/03/22 09:01:31;;;;;;;18.75;4.72;;;11.00;99.90;;;;;;5090498;28;20040;-74
2023/03/22 09:03:56;;;;;;;10.32;4.63;;;11.00;99.90;;;;;;5090552;28;20043;-74
2023/03/22 09:06:24;;;;;;;14.02;4.38;;;11.00;99.90;;;;;;5088783;28;20056;-75
2023/03/22 09:08:53;;;;;;;14.20;4.47;;;10.90;99.90;;;;;;5090415;28;20070;-75
2023/03/22 09:11:20;;;;;;;11.77;3.90;;;10.90;99.90;;;;;;5089886;28;20059;-75
2023/03/22 09:13:49;;;;;;;12.15;3.78;;;11.00;99.90;;;;;;5090026;28;20039;-75
2023/03/22 09:16:15;;;;;;;14.93;4.00;;;10.90;99.90;;;;;;5089340;28;20048;-75
2023/03/22 09:18:41;;;;;;;15.07;4.80;;;11.20;99.90;;;;;;5090145;28;20044;-79
2023/03/22 09:21:07;;;;;;;10.75;4.30;;;11.20;99.90;;;;;;5090510;28;20440;-77
2023/03/22 09:23:35;;;;;;;14.20;3.90;;;11.30;99.90;;;;;;5088873;28;20161;-74
2023/03/22 09:26:03;;;;;;;8.95;3.75;;;10.90;99.90;;;;;;5090592;28;20052;-74
2023/03/22 09:28:29;;;;;;;20.38;4.15;;;11.20;99.90;;;;;;5090441;28;20044;-74
2023/03/22 09:31:00;;;;;;;11.93;3.83;;;11.00;99.90;;;;;;5090375;28;20051;-77
2023/03/22 09:33:25;;;;;;;13.23;4.22;;;11.20;99.90;;;;;;5090563;28;20119;-73
2023/03/22 09:35:52;;;;;;;14.65;3.95;;;10.90;99.90;;;;;;5090185;28;20169;-76
2023/03/22 09:38:19;;;;;;;14.48;3.75;;;10.90;99.90;;;;;;5090783;28;20044;-75
2023/03/22 09:40:59;;;;;;;14.52;3.90;;;11.10;99.90;;;;;;5089175;28;20055;-78
2023/03/22 09:43:31;;;;;;;9.13;3.92;;;10.90;99.90;;;;;;5090326;28;20495;-76
2023/03/22 09:45:58;;;;;;;11.30;3.20;;;10.90;99.90;;;;;;5090363;28;20048;-77
2023/03/22 09:48:34;;;;;;;12.45;3.70;;;10.90;99.90;;;;;;5090360;28;20491;-75
2023/03/22 09:51:02;;;;;;;14.38;3.95;;;10.80;99.90;;;;;;5089405;28;20108;-76
2023/03/22 09:53:30;;;;;;;16.45;3.55;;;11.00;99.90;;;;;;5090066;28;20070;-79
2023/03/22 09:55:59;;;;;;;18.70;3.67;;;10.80;99.90;;;;;;5088674;28;20044;-76
2023/03/22 09:58:49;;;;;;;9.68;3.50;;;10.80;99.90;;;;;;5091599;28;20048;-75
2023/03/22 10:01:50;;;;;;;13.55;3.28;;;10.70;99.90;;;;;;5093572;28;20048;-78
2023/03/22 10:04:34;;;;;;;10.77;3.38;;;10.60;99.90;;;;;;5050503;28;20056;-81
2023/03/22 10:07:06;;;;;;;11.23;3.17;;;10.60;99.90;;;;;;5050868;28;20057;-76
2023/03/22 10:09:46;;;;;;;14.80;3.58;;;10.70;99.90;;;;;;5049563;28;20057;-75
2023/03/22 10:12:25;;;;;;;14.07;3.50;;;10.50;99.90;;;;;;5033643;28;20095;-74
2023/03/22 10:15:17;;;;;;;9.25;3.35;;;10.50;99.90;;;;;;5050600;28;20466;-78
2023/03/22 10:17:47;;;;;;;8.57;3.55;;;10.40;99.90;;;;;;5050657;28;20128;-76
2023/03/22 10:20:43;;;;;;;13.95;3.78;;;10.40;99.90;;;;;;5050420;28;20064;-77
2023/03/22 10:23:25;;;;;;;13.77;3.95;;;10.30;99.90;;;;;;5050747;28;20496;-79
2023/03/22 10:25:51;;;;;;;13.25;3.85;;;10.30;99.90;;;;;;5050625;28;20049;-76
2023/03/22 10:28:46;;;;;;;10.60;3.30;;;10.60;99.90;;;;;;5050235;28;20601;-76
2023/03/22 10:31:19;;;;;;;11.93;3.20;;;10.20;99.90;;;;;;5049912;28;20067;-80
2023/03/22 10:33:58;;;;;;;12.55;3.72;;;10.70;99.90;;;;;;5049926;28;20318;-77
2023/03/22 10:36:30;;;;;;;15.18;3.53;;;10.10;99.90;;;;;;5050324;28;20045;-77
2023/03/22 10:39:03;;;;;;;9.02;2.92;;;10.40;99.90;;;;;;5049984;28;20045;-76
2023/03/22 10:41:31;;;;;;;13.52;3.58;;;10.20;99.90;;;;;;5065031;28;20419;-76
2023/03/22 10:43:59;;;;;;;7.57;3.63;;;10.10;99.90;;;;;;5072702;28;20516;-77
2023/03/22 10:46:30;;;;;;;10.43;3.25;;;10.20;99.90;;;;;;5089581;28;20067;-74
2023/03/22 10:48:58;;;;;;;11.93;3.85;;;10.00;99.90;;;;;;5072202;28;20044;-75
2023/03/22 10:51:34;;;;;;;12.85;3.80;;;10.00;99.90;;;;;;5072431;28;20048;-76
2023/03/22 10:54:01;;;;;;;13.77;3.90;;;10.00;99.90;;;;;;5087587;28;20133;-76
2023/03/22 10:56:27;;;;;;;17.08;3.90;;;10.00;99.90;;;;;;5072625;28;20052;-76
2023/03/22 10:58:54;;;;;;;13.57;4.32;;;10.10;99.90;;;;;;5072466;28;20059;-77
2023/03/22 11:01:35;;;;;;;8.25;3.38;;;10.20;99.90;;;;;;5072231;28;20048;-77
2023/03/22 11:04:06;;;;;;;13.55;4.10;;;10.00;99.90;;;;;;5091752;28;20040;-76
2023/03/22 11:06:38;;;;;;;9.60;3.33;;;10.00;99.90;;;;;;5092437;28;20059;-77
2023/03/22 11:09:15;;;;;;;12.05;3.53;;;10.00;99.90;;;;;;5092218;28;20710;-77
2023/03/22 11:11:58;;;;;;;11.32;3.70;;;10.00;99.90;;;;;;5091030;28;20060;-77
2023/03/22 11:14:35;;;;;;;12.25;3.08;;;10.10;99.90;;;;;;5092292;28;20039;-78
2023/03/22 11:17:12;;;;;;;8.57;3.15;;;10.10;99.90;;;;;;5092359;28;20494;-76
2023/03/22 11:19:41;;;;;;;11.57;3.58;;;10.70;99.90;;;;;;5073925;28;20047;-75
2023/03/22 11:22:34;;;;;;;7.75;3.30;;;10.60;99.90;;;;;;5092340;28;20063;-76
2023/03/22 11:25:01;;;;;;;10.65;3.95;;;10.10;99.90;;;;;;5091885;28;20048;-75
2023/03/22 11:27:30;;;;;;;9.02;3.72;;;10.10;99.90;;;;;;5092119;28;20052;-76
2023/03/22 11:30:19;;;;;;;10.07;3.67;;;10.50;99.90;;;;;;5092154;28;20074;-76
2023/03/22 11:32:45;;;;;;;13.23;3.80;;;10.10;99.90;;;;;;5090542;28;20398;-75
2023/03/22 11:35:14;;;;;;;9.85;3.30;;;10.30;99.90;;;;;;5091851;28;20444;-75
2023/03/22 11:37:51;;;;;;;7.50;3.13;;;10.20;99.90;;;;;;5091958;28;20055;-76
2023/03/22 11:40:22;;;;;;;12.43;4.22;;;10.30;99.90;;;;;;5092212;28;20380;-76
2023/03/22 11:42:52;;;;;;;11.38;4.10;;;10.20;99.90;;;;;;5092076;28;20119;-76
2023/03/22 11:45:34;;;;;;;10.25;3.85;;;10.70;99.90;;;;;;5092091;28;20047;-76
2023/03/22 11:48:08;;;;;;;9.68;3.13;;;10.20;99.90;;;;;;5092197;28;20048;-74
2023/03/22 11:50:37;;;;;;;8.13;3.70;;;10.50;99.90;;;;;;5091659;28;20120;-74
2023/03/22 11:53:07;;;;;;;10.40;3.42;;;10.20;99.90;;;;;;5091759;28;20036;-76
2023/03/22 11:55:35;;;;;;;8.30;3.42;;;10.30;99.90;;;;;;5091651;28;20032;-75
2023/03/22 11:58:05;;;;;;;9.77;3.85;;;10.30;99.90;;;;;;5091358;28;20067;-75
2023/03/22 12:00:36;;;;;;;10.52;3.95;;;10.30;99.90;;;;;;5091630;28;20120;-75
2023/03/22 12:03:19;;;;;;;13.02;3.53;;;10.80;99.90;;;;;;5090778;28;20048;-75
2023/03/22 12:05:48;;;;;;;9.32;2.67;;;10.30;99.90;;;;;;5090658;28;20091;-75
2023/03/22 12:08:31;;;;;;;9.77;3.42;;;10.30;99.90;;;;;;5089709;28;20079;-75
2023/03/22 12:11:05;;;;;;;10.15;3.75;;;10.30;99.90;;;;;;5090435;28;20056;-75
2023/03/22 12:13:45;;;;;;;10.88;3.25;;;10.30;99.90;;;;;;5090378;28;20136;-81
2023/03/22 12:16:14;;;;;;;9.82;3.13;;;10.30;99.90;;;;;;5090137;28;20052;-82
2023/03/22 12:19:12;;;;;;;9.38;3.45;;;10.30;99.90;;;;;;5090754;28;20048;-83
2023/03/22 12:21:38;;;;;;;6.80;3.15;;;10.30;99.90;;;;;;5030035;28;20102;-79
2023/03/22 12:24:15;;;;;;;10.30;3.13;;;10.30;99.90;;;;;;5047600;28;20060;-81
2023/03/22 12:26:41;;;;;;;17.75;3.97;;;10.70;99.90;;;;;;5038062;28;20057;-77
2023/03/22 12:29:15;;;;;;;9.15;3.17;;;10.70;99.90;;;;;;5028418;28;20144;-76
2023/03/22 12:31:50;;;;;;;6.77;3.13;;;10.70;99.90;;;;;;5045896;28;20095;-76
2023/03/22 12:34:20;;;;;;;8.35;3.22;;;10.60;99.90;;;;;;5047259;28;20291;-83
2023/03/22 12:36:51;;;;;;;9.75;3.38;;;10.40;99.90;;;;;;5030615;28;20905;-80
2023/03/22 12:39:37;;;;;;;16.30;3.90;;;10.40;99.90;;;;;;5047425;28;20088;-76
2023/03/22 12:42:20;;;;;;;10.20;3.47;;;10.30;99.90;;;;;;5047376;28;20049;-76
2023/03/22 12:44:49;;;;;;;9.95;4.07;;;10.30;99.90;;;;;;5047072;28;20136;-80
2023/03/22 12:47:26;;;;;;;8.05;3.13;;;10.30;99.90;;;;;;5047303;28;20084;-77
2023/03/22 12:49:59;;;;;;;11.82;3.30;;;10.30;99.90;;;;;;5047263;28;20048;-76
2023/03/22 12:52:32;;;;;;;11.68;3.92;;;10.20;99.90;;;;;;5047018;28;20107;-75
2023/03/22 12:55:00;;;;;;;7.82;3.38;;;10.60;99.90;;;;;;5047253;28;20049;-76
2023/03/22 12:57:26;;;;;;;13.98;3.90;;;10.20;99.90;;;;;;5048006;28;20391;-76
2023/03/22 12:59:56;;;;;;;11.02;4.13;;;10.20;99.90;;;;;;5068466;28;20060;-76